sensor_id;sensor_type;location;lat;lon;timestamp;P1;durP1;ratioP1;P2;durP2;ratioP2
75169;SDS011;63749;49.186;9.222;2023-04-01T00:01:33;4.93;;;0.60;;
75169;SDS011;63749;49.186;9.222;2023-04-01T00:03:58;1.47;;;0.67;;
75169;SDS011;63749;49.186;9.222;2023-04-01T00:06:26;2.28;;;0.55;;
75169;SDS011;63749;49.186;9.222;2023-04-01T00:08:52;3.13;;;0.70;;
75169;SDS011;63749;49.186;9.222;2023-04-01T00:11:18;3.73;;;0.60;;
75169;SDS011;63749;49.186;9.222;2023-04-01T00:13:43;1.83;;;0.43;;
75169;SDS011;63749;49.186;9.222;2023-04-01T00:16:09;2.67;;;0.53;;
75169;SDS011;63749;49.186;9.222;2023-04-01T00:18:34;1.80;;;0.60;;
75169;SDS011;63749;49.186;9.222;2023-04-01T00:21:00;1.90;;;0.43;;
75169;SDS011;63749;49.186;9.222;2023-04-01T00:23:25;1.57;;;0.40;;
75169;SDS011;63749;49.186;9.222;2023-04-01T00:25:51;2.90;;;0.50;;
75169;SDS011;63749;49.186;9.222;2023-04-01T00:28:17;2.45;;;0.65;;
75169;SDS011;63749;49.186;9.222;2023-04-01T00:30:44;2.13;;;0.50;;
75169;SDS011;63749;49.186;9.222;2023-04-01T00:33:10;2.43;;;0.50;;
75169;SDS011;63749;49.186;9.222;2023-04-01T00:35:35;1.77;;;0.43;;
75169;SDS011;63749;49.186;9.222;2023-04-01T00:38:01;3.20;;;0.70;;
75169;SDS011;63749;49.186;9.222;2023-04-01T00:40:29;5.50;;;0.60;;
75169;SDS011;63749;49.186;9.222;2023-04-01T00:42:57;2.08;;;0.70;;
75169;SDS011;63749;49.186;9.222;2023-04-01T00:48:04;2.10;;;0.60;;
75169;SDS011;63749;49.186;9.222;2023-04-01T00:50:33;3.17;;;0.50;;
75169;SDS011;63749;49.186;9.222;2023-04-01T00:53:00;7.25;;;0.90;;
75169;SDS011;63749;49.186;9.222;2023-04-01T00:55:27;4.55;;;0.60;;
75169;SDS011;63749;49.186;9.222;2023-04-01T00:57:55;5.90;;;0.80;;
75169;SDS011;63749;49.186;9.222;2023-04-01T01:00:23;4.18;;;0.70;;
75169;SDS011;63749;49.186;9.222;2023-04-01T01:02:49;3.33;;;0.80;;
75169;SDS011;63749;49.186;9.222;2023-04-01T01:05:16;5.05;;;0.68;;
75169;SDS011;63749;49.186;9.222;2023-04-01T01:10:28;6.18;;;1.10;;
75169;SDS011;63749;49.186;9.222;2023-04-01T01:23:49;4.03;;;0.68;;
75169;SDS011;63749;49.186;9.222;2023-04-01T01:35:16;3.80;;;0.63;;
75169;SDS011;63749;49.186;9.222;2023-04-01T01:37:40;5.45;;;0.70;;
75169;SDS011;63749;49.186;9.222;2023-04-01T01:40:09;4.05;;;0.70;;
75169;SDS011;63749;49.186;9.222;2023-04-01T01:42:37;4.22;;;0.90;;
75169;SDS011;63749;49.186;9.222;2023-04-01T01:45:05;2.25;;;0.70;;
75169;SDS011;63749;49.186;9.222;2023-04-01T01:47:32;2.57;;;0.63;;
75169;SDS011;63749;49.186;9.222;2023-04-01T01:49:59;1.67;;;0.70;;
75169;SDS011;63749;49.186;9.222;2023-04-01T01:52:26;2.97;;;0.65;;
75169;SDS011;63749;49.186;9.222;2023-04-01T01:54:54;3.28;;;0.60;;
75169;SDS011;63749;49.186;9.222;2023-04-01T01:57:31;2.38;;;0.70;;
75169;SDS011;63749;49.186;9.222;2023-04-01T02:00:04;5.30;;;0.70;;
75169;SDS011;63749;49.186;9.222;2023-04-01T02:02:39;2.58;;;0.80;;
75169;SDS011;63749;49.186;9.222;2023-04-01T02:05:06;1.50;;;0.50;;
75169;SDS011;63749;49.186;9.222;2023-04-01T02:07:35;2.55;;;0.45;;
75169;SDS011;63749;49.186;9.222;2023-04-01T02:10:02;4.32;;;0.80;;
75169;SDS011;63749;49.186;9.222;2023-04-01T02:12:28;1.33;;;0.50;;
75169;SDS011;63749;49.186;9.222;2023-04-01T02:14:59;3.22;;;0.50;;
75169;SDS011;63749;49.186;9.222;2023-04-01T02:17:30;2.83;;;0.63;;
75169;SDS011;63749;49.186;9.222;2023-04-01T02:22:27;2.80;;;0.50;;
75169;SDS011;63749;49.186;9.222;2023-04-01T02:24:59;2.77;;;0.60;;
75169;SDS011;63749;49.186;9.222;2023-04-01T02:27:30;5.47;;;0.63;;
75169;SDS011;63749;49.186;9.222;2023-04-01T02:29:56;2.35;;;0.50;;
75169;SDS011;63749;49.186;9.222;2023-04-01T02:32:22;2.75;;;0.50;;
75169;SDS011;63749;49.186;9.222;2023-04-01T02:34:47;3.23;;;0.57;;
75169;SDS011;63749;49.186;9.222;2023-04-01T02:37:13;2.83;;;0.60;;
75169;SDS011;63749;49.186;9.222;2023-04-01T02:39:39;2.47;;;0.40;;
75169;SDS011;63749;49.186;9.222;2023-04-01T02:42:05;1.30;;;0.50;;
75169;SDS011;63749;49.186;9.222;2023-04-01T02:44:30;1.25;;;0.60;;
75169;SDS011;63749;49.186;9.222;2023-04-01T02:46:56;2.37;;;0.50;;
75169;SDS011;63749;49.186;9.222;2023-04-01T02:49:21;2.73;;;0.60;;
75169;SDS011;63749;49.186;9.222;2023-04-01T02:51:46;2.73;;;0.70;;
75169;SDS011;63749;49.186;9.222;2023-04-01T02:54:12;1.80;;;0.50;;
75169;SDS011;63749;49.186;9.222;2023-04-01T02:56:37;1.85;;;0.50;;
75169;SDS011;63749;49.186;9.222;2023-04-01T02:59:02;2.50;;;0.60;;
75169;SDS011;63749;49.186;9.222;2023-04-01T03:01:28;4.07;;;0.70;;
75169;SDS011;63749;49.186;9.222;2023-04-01T03:03:53;3.30;;;0.63;;
75169;SDS011;63749;49.186;9.222;2023-04-01T03:06:19;3.60;;;0.70;;
75169;SDS011;63749;49.186;9.222;2023-04-01T03:08:44;2.67;;;0.50;;
75169;SDS011;63749;49.186;9.222;2023-04-01T03:11:10;2.67;;;0.60;;
75169;SDS011;63749;49.186;9.222;2023-04-01T03:13:35;3.10;;;0.60;;
75169;SDS011;63749;49.186;9.222;2023-04-01T03:16:01;3.07;;;0.67;;
75169;SDS011;63749;49.186;9.222;2023-04-01T03:18:27;5.20;;;0.60;;
75169;SDS011;63749;49.186;9.222;2023-04-01T03:20:52;2.17;;;0.60;;
75169;SDS011;63749;49.186;9.222;2023-04-01T03:23:17;2.70;;;0.50;;
75169;SDS011;63749;49.186;9.222;2023-04-01T03:25:46;1.88;;;0.50;;
75169;SDS011;63749;49.186;9.222;2023-04-01T03:28:12;2.30;;;0.50;;
75169;SDS011;63749;49.186;9.222;2023-04-01T03:30:38;2.37;;;0.80;;
75169;SDS011;63749;49.186;9.222;2023-04-01T03:33:03;2.08;;;0.45;;
75169;SDS011;63749;49.186;9.222;2023-04-01T03:35:29;2.37;;;0.50;;
75169;SDS011;63749;49.186;9.222;2023-04-01T03:37:54;2.63;;;0.63;;
75169;SDS011;63749;49.186;9.222;2023-04-01T03:40:20;2.78;;;0.60;;
75169;SDS011;63749;49.186;9.222;2023-04-01T03:42:46;3.45;;;0.47;;
75169;SDS011;63749;49.186;9.222;2023-04-01T03:45:11;1.23;;;0.50;;
75169;SDS011;63749;49.186;9.222;2023-04-01T03:47:37;2.13;;;0.60;;
75169;SDS011;63749;49.186;9.222;2023-04-01T03:50:06;1.90;;;0.55;;
75169;SDS011;63749;49.186;9.222;2023-04-01T03:52:32;3.63;;;0.50;;
75169;SDS011;63749;49.186;9.222;2023-04-01T03:54:58;2.55;;;0.50;;
75169;SDS011;63749;49.186;9.222;2023-04-01T03:57:23;2.50;;;0.43;;
75169;SDS011;63749;49.186;9.222;2023-04-01T03:59:49;1.75;;;0.43;;
75169;SDS011;63749;49.186;9.222;2023-04-01T04:02:15;2.17;;;0.53;;
75169;SDS011;63749;49.186;9.222;2023-04-01T04:04:40;2.47;;;0.60;;
75169;SDS011;63749;49.186;9.222;2023-04-01T04:07:06;1.20;;;0.40;;
75169;SDS011;63749;49.186;9.222;2023-04-01T04:09:31;3.97;;;0.93;;
75169;SDS011;63749;49.186;9.222;2023-04-01T04:11:57;2.90;;;0.70;;
75169;SDS011;63749;49.186;9.222;2023-04-01T04:14:22;2.63;;;0.53;;
75169;SDS011;63749;49.186;9.222;2023-04-01T04:16:48;2.38;;;0.70;;
75169;SDS011;63749;49.186;9.222;2023-04-01T04:19:13;2.13;;;0.50;;
75169;SDS011;63749;49.186;9.222;2023-04-01T04:21:39;2.70;;;0.70;;
75169;SDS011;63749;49.186;9.222;2023-04-01T04:24:05;4.50;;;0.85;;
75169;SDS011;63749;49.186;9.222;2023-04-01T04:26:31;1.83;;;0.50;;
75169;SDS011;63749;49.186;9.222;2023-04-01T04:28:56;2.97;;;0.60;;
75169;SDS011;63749;49.186;9.222;2023-04-01T04:31:22;3.40;;;0.60;;
75169;SDS011;63749;49.186;9.222;2023-04-01T04:33:49;3.25;;;0.60;;
75169;SDS011;63749;49.186;9.222;2023-04-01T04:36:15;2.53;;;0.63;;
75169;SDS011;63749;49.186;9.222;2023-04-01T04:38:40;3.60;;;0.55;;
75169;SDS011;63749;49.186;9.222;2023-04-01T04:41:12;2.40;;;0.60;;
75169;SDS011;63749;49.186;9.222;2023-04-01T04:43:39;1.90;;;0.47;;
75169;SDS011;63749;49.186;9.222;2023-04-01T04:46:06;2.78;;;0.60;;
75169;SDS011;63749;49.186;9.222;2023-04-01T04:48:32;2.80;;;0.50;;
75169;SDS011;63749;49.186;9.222;2023-04-01T04:50:58;5.40;;;0.80;;
75169;SDS011;63749;49.186;9.222;2023-04-01T04:53:23;3.40;;;0.50;;
75169;SDS011;63749;49.186;9.222;2023-04-01T04:55:50;1.63;;;0.60;;
75169;SDS011;63749;49.186;9.222;2023-04-01T04:58:16;2.63;;;0.53;;
75169;SDS011;63749;49.186;9.222;2023-04-01T05:00:42;2.38;;;0.50;;
75169;SDS011;63749;49.186;9.222;2023-04-01T05:03:07;3.10;;;0.70;;
75169;SDS011;63749;49.186;9.222;2023-04-01T05:05:33;5.27;;;0.70;;
75169;SDS011;63749;49.186;9.222;2023-04-01T05:07:59;4.55;;;0.70;;
75169;SDS011;63749;49.186;9.222;2023-04-01T05:10:25;3.00;;;0.70;;
75169;SDS011;63749;49.186;9.222;2023-04-01T05:12:50;2.45;;;0.50;;
75169;SDS011;63749;49.186;9.222;2023-04-01T05:15:15;3.83;;;0.90;;
75169;SDS011;63749;49.186;9.222;2023-04-01T05:17:41;3.43;;;0.50;;
75169;SDS011;63749;49.186;9.222;2023-04-01T05:20:06;3.07;;;0.53;;
75169;SDS011;63749;49.186;9.222;2023-04-01T05:22:32;3.72;;;0.90;;
75169;SDS011;63749;49.186;9.222;2023-04-01T05:24:57;3.33;;;0.50;;
75169;SDS011;63749;49.186;9.222;2023-04-01T05:27:23;2.97;;;0.60;;
75169;SDS011;63749;49.186;9.222;2023-04-01T05:29:48;2.93;;;0.90;;
75169;SDS011;63749;49.186;9.222;2023-04-01T05:32:14;4.30;;;0.68;;
75169;SDS011;63749;49.186;9.222;2023-04-01T05:34:39;2.00;;;0.50;;
75169;SDS011;63749;49.186;9.222;2023-04-01T05:37:05;2.60;;;0.60;;
75169;SDS011;63749;49.186;9.222;2023-04-01T05:39:35;1.95;;;0.50;;
75169;SDS011;63749;49.186;9.222;2023-04-01T05:42:02;4.03;;;0.60;;
75169;SDS011;63749;49.186;9.222;2023-04-01T05:44:27;2.35;;;0.57;;
75169;SDS011;63749;49.186;9.222;2023-04-01T05:46:53;3.07;;;0.50;;
75169;SDS011;63749;49.186;9.222;2023-04-01T05:49:18;2.73;;;0.63;;
75169;SDS011;63749;49.186;9.222;2023-04-01T05:51:43;2.30;;;0.60;;
75169;SDS011;63749;49.186;9.222;2023-04-01T05:54:09;2.87;;;0.50;;
75169;SDS011;63749;49.186;9.222;2023-04-01T05:56:34;2.85;;;0.68;;
75169;SDS011;63749;49.186;9.222;2023-04-01T05:59:00;4.70;;;0.97;;
75169;SDS011;63749;49.186;9.222;2023-04-01T06:01:25;2.13;;;0.47;;
75169;SDS011;63749;49.186;9.222;2023-04-01T06:03:51;2.40;;;0.50;;
75169;SDS011;63749;49.186;9.222;2023-04-01T06:06:20;3.13;;;0.60;;
75169;SDS011;63749;49.186;9.222;2023-04-01T06:08:49;3.60;;;0.80;;
75169;SDS011;63749;49.186;9.222;2023-04-01T06:14:07;2.58;;;0.60;;
75169;SDS011;63749;49.186;9.222;2023-04-01T06:22:32;2.15;;;1.00;;
75169;SDS011;63749;49.186;9.222;2023-04-01T06:25:33;1.33;;;0.50;;
75169;SDS011;63749;49.186;9.222;2023-04-01T06:30:58;3.33;;;0.60;;
75169;SDS011;63749;49.186;9.222;2023-04-01T06:36:26;0.40;;;0.40;;
75169;SDS011;63749;49.186;9.222;2023-04-01T06:41:30;4.07;;;0.60;;
75169;SDS011;63749;49.186;9.222;2023-04-01T06:46:57;1.98;;;0.63;;
75169;SDS011;63749;49.186;9.222;2023-04-01T06:54:36;2.23;;;0.60;;
75169;SDS011;63749;49.186;9.222;2023-04-01T06:57:11;1.90;;;0.50;;
75169;SDS011;63749;49.186;9.222;2023-04-01T06:59:59;1.83;;;0.50;;
75169;SDS011;63749;49.186;9.222;2023-04-01T07:05:06;2.35;;;0.50;;
75169;SDS011;63749;49.186;9.222;2023-04-01T07:10:00;1.42;;;0.52;;
75169;SDS011;63749;49.186;9.222;2023-04-01T07:14:55;1.17;;;0.60;;
75169;SDS011;63749;49.186;9.222;2023-04-01T07:17:33;1.08;;;0.50;;
75169;SDS011;63749;49.186;9.222;2023-04-01T07:22:35;0.68;;;0.40;;
75169;SDS011;63749;49.186;9.222;2023-04-01T07:25:15;0.90;;;0.40;;
75169;SDS011;63749;49.186;9.222;2023-04-01T07:27:43;1.40;;;0.47;;
75169;SDS011;63749;49.186;9.222;2023-04-01T07:30:17;1.35;;;0.50;;
75169;SDS011;63749;49.186;9.222;2023-04-01T07:33:00;1.27;;;0.50;;
75169;SDS011;63749;49.186;9.222;2023-04-01T07:44:14;1.13;;;0.40;;
75169;SDS011;63749;49.186;9.222;2023-04-01T07:46:45;2.38;;;0.70;;
75169;SDS011;63749;49.186;9.222;2023-04-01T07:49:27;1.77;;;0.50;;
75169;SDS011;63749;49.186;9.222;2023-04-01T07:51:59;1.27;;;0.50;;
75169;SDS011;63749;49.186;9.222;2023-04-01T07:54:32;1.42;;;0.50;;
75169;SDS011;63749;49.186;9.222;2023-04-01T08:05:26;0.70;;;0.50;;
75169;SDS011;63749;49.186;9.222;2023-04-01T08:08:00;2.03;;;0.50;;
75169;SDS011;63749;49.186;9.222;2023-04-01T08:10:57;0.80;;;0.60;;
75169;SDS011;63749;49.186;9.222;2023-04-01T08:13:42;1.38;;;0.50;;
75169;SDS011;63749;49.186;9.222;2023-04-01T08:22:29;1.65;;;0.50;;
75169;SDS011;63749;49.186;9.222;2023-04-01T08:25:01;0.90;;;0.50;;
75169;SDS011;63749;49.186;9.222;2023-04-01T08:27:37;1.88;;;0.70;;
75169;SDS011;63749;49.186;9.222;2023-04-01T08:30:15;1.27;;;0.60;;
75169;SDS011;63749;49.186;9.222;2023-04-01T08:32:52;1.10;;;0.50;;
75169;SDS011;63749;49.186;9.222;2023-04-01T08:35:31;0.70;;;0.50;;
75169;SDS011;63749;49.186;9.222;2023-04-01T08:46:26;1.83;;;0.60;;
75169;SDS011;63749;49.186;9.222;2023-04-01T08:52:08;0.65;;;0.50;;
75169;SDS011;63749;49.186;9.222;2023-04-01T08:55:12;0.88;;;0.50;;
75169;SDS011;63749;49.186;9.222;2023-04-01T08:58:15;0.70;;;0.50;;
75169;SDS011;63749;49.186;9.222;2023-04-01T09:11:43;1.30;;;0.50;;
75169;SDS011;63749;49.186;9.222;2023-04-01T09:14:25;1.17;;;0.50;;
75169;SDS011;63749;49.186;9.222;2023-04-01T09:31:32;1.95;;;0.60;;
75169;SDS011;63749;49.186;9.222;2023-04-01T09:37:35;1.13;;;0.52;;
75169;SDS011;63749;49.186;9.222;2023-04-01T09:41:07;0.50;;;0.40;;
75169;SDS011;63749;49.186;9.222;2023-04-01T09:59:19;2.10;;;0.52;;
75169;SDS011;63749;49.186;9.222;2023-04-01T10:02:20;1.17;;;0.50;;
75169;SDS011;63749;49.186;9.222;2023-04-01T10:27:28;0.90;;;0.60;;
75169;SDS011;63749;49.186;9.222;2023-04-01T10:38:20;1.10;;;0.52;;
75169;SDS011;63749;49.186;9.222;2023-04-01T10:52:18;1.52;;;0.60;;
75169;SDS011;63749;49.186;9.222;2023-04-01T11:00:40;0.60;;;0.50;;
75169;SDS011;63749;49.186;9.222;2023-04-01T11:17:56;1.98;;;0.45;;
75169;SDS011;63749;49.186;9.222;2023-04-01T11:34:24;0.60;;;0.50;;
75169;SDS011;63749;49.186;9.222;2023-04-01T11:39:37;0.63;;;0.50;;
75169;SDS011;63749;49.186;9.222;2023-04-01T11:42:14;0.70;;;0.50;;
75169;SDS011;63749;49.186;9.222;2023-04-01T11:45:07;1.70;;;0.50;;
75169;SDS011;63749;49.186;9.222;2023-04-01T11:47:55;1.55;;;0.50;;
75169;SDS011;63749;49.186;9.222;2023-04-01T11:53:23;0.85;;;0.50;;
75169;SDS011;63749;49.186;9.222;2023-04-01T11:58:46;1.10;;;0.50;;
75169;SDS011;63749;49.186;9.222;2023-04-01T12:01:25;1.92;;;0.60;;
75169;SDS011;63749;49.186;9.222;2023-04-01T12:04:00;0.83;;;0.60;;
75169;SDS011;63749;49.186;9.222;2023-04-01T12:20:49;1.95;;;0.60;;
75169;SDS011;63749;49.186;9.222;2023-04-01T12:34:36;0.65;;;0.60;;
75169;SDS011;63749;49.186;9.222;2023-04-01T12:40:16;1.17;;;0.60;;
75169;SDS011;63749;49.186;9.222;2023-04-01T12:48:36;1.85;;;0.60;;
75169;SDS011;63749;49.186;9.222;2023-04-01T12:53:36;1.67;;;0.63;;
75169;SDS011;63749;49.186;9.222;2023-04-01T13:10:00;1.13;;;0.70;;
75169;SDS011;63749;49.186;9.222;2023-04-01T13:17:52;0.60;;;0.43;;
75169;SDS011;63749;49.186;9.222;2023-04-01T13:23:05;0.73;;;0.50;;
75169;SDS011;63749;49.186;9.222;2023-04-01T13:28:43;1.42;;;0.52;;
75169;SDS011;63749;49.186;9.222;2023-04-01T13:39:35;1.27;;;0.60;;
75169;SDS011;63749;49.186;9.222;2023-04-01T14:23:07;0.80;;;0.60;;
75169;SDS011;63749;49.186;9.222;2023-04-01T14:34:05;1.95;;;0.90;;
75169;SDS011;63749;49.186;9.222;2023-04-01T14:36:39;1.50;;;0.93;;
75169;SDS011;63749;49.186;9.222;2023-04-01T14:39:46;1.57;;;0.80;;
75169;SDS011;63749;49.186;9.222;2023-04-01T14:50:12;3.13;;;0.60;;
75169;SDS011;63749;49.186;9.222;2023-04-01T14:55:41;1.20;;;0.60;;
75169;SDS011;63749;49.186;9.222;2023-04-01T14:58:15;0.93;;;0.70;;
75169;SDS011;63749;49.186;9.222;2023-04-01T15:00:47;1.10;;;0.60;;
75169;SDS011;63749;49.186;9.222;2023-04-01T15:06:00;2.60;;;0.70;;
75169;SDS011;63749;49.186;9.222;2023-04-01T15:08:56;0.50;;;0.50;;
75169;SDS011;63749;49.186;9.222;2023-04-01T15:17:46;1.02;;;0.60;;
75169;SDS011;63749;49.186;9.222;2023-04-01T15:23:41;0.88;;;0.60;;
75169;SDS011;63749;49.186;9.222;2023-04-01T15:26:20;1.05;;;0.60;;
75169;SDS011;63749;49.186;9.222;2023-04-01T15:29:08;1.00;;;0.60;;
75169;SDS011;63749;49.186;9.222;2023-04-01T15:31:55;1.35;;;0.60;;
75169;SDS011;63749;49.186;9.222;2023-04-01T15:40:17;1.52;;;0.80;;
75169;SDS011;63749;49.186;9.222;2023-04-01T15:48:50;1.80;;;0.80;;
75169;SDS011;63749;49.186;9.222;2023-04-01T16:08:34;1.13;;;0.70;;
75169;SDS011;63749;49.186;9.222;2023-04-01T16:11:14;1.52;;;0.60;;
75169;SDS011;63749;49.186;9.222;2023-04-01T16:13:59;1.85;;;0.80;;
75169;SDS011;63749;49.186;9.222;2023-04-01T16:30:44;2.17;;;0.70;;
75169;SDS011;63749;49.186;9.222;2023-04-01T16:39:08;1.55;;;0.70;;
75169;SDS011;63749;49.186;9.222;2023-04-01T16:42:20;1.63;;;0.80;;
75169;SDS011;63749;49.186;9.222;2023-04-01T16:44:54;1.17;;;0.60;;
75169;SDS011;63749;49.186;9.222;2023-04-01T16:47:32;1.50;;;0.68;;
75169;SDS011;63749;49.186;9.222;2023-04-01T16:50:24;2.97;;;1.48;;
75169;SDS011;63749;49.186;9.222;2023-04-01T16:53:01;2.58;;;1.50;;
75169;SDS011;63749;49.186;9.222;2023-04-01T16:55:55;2.03;;;0.80;;
75169;SDS011;63749;49.186;9.222;2023-04-01T16:58:34;2.20;;;0.80;;
75169;SDS011;63749;49.186;9.222;2023-04-01T17:01:16;2.40;;;1.00;;
75169;SDS011;63749;49.186;9.222;2023-04-01T17:03:49;1.92;;;0.90;;
75169;SDS011;63749;49.186;9.222;2023-04-01T17:06:39;1.50;;;0.75;;
75169;SDS011;63749;49.186;9.222;2023-04-01T17:13:09;1.90;;;0.70;;
75169;SDS011;63749;49.186;9.222;2023-04-01T17:15:43;1.73;;;0.75;;
75169;SDS011;63749;49.186;9.222;2023-04-01T17:18:14;1.17;;;0.63;;
75169;SDS011;63749;49.186;9.222;2023-04-01T17:26:46;0.77;;;0.53;;
75169;SDS011;63749;49.186;9.222;2023-04-01T17:28:58;1.92;;;0.70;;
75169;SDS011;63749;49.186;9.222;2023-04-01T17:31:40;2.90;;;0.70;;
75169;SDS011;63749;49.186;9.222;2023-04-01T17:34:29;1.40;;;0.75;;
75169;SDS011;63749;49.186;9.222;2023-04-01T17:39:49;1.70;;;0.70;;
75169;SDS011;63749;49.186;9.222;2023-04-01T18:04:37;3.60;;;1.80;;
75169;SDS011;63749;49.186;9.222;2023-04-01T18:07:18;5.57;;;1.67;;
75169;SDS011;63749;49.186;9.222;2023-04-01T18:23:45;6.15;;;1.40;;
75169;SDS011;63749;49.186;9.222;2023-04-01T18:26:20;3.17;;;1.10;;
75169;SDS011;63749;49.186;9.222;2023-04-01T18:31:36;2.30;;;0.95;;
75169;SDS011;63749;49.186;9.222;2023-04-01T18:34:15;2.63;;;1.20;;
75169;SDS011;63749;49.186;9.222;2023-04-01T18:36:51;2.05;;;0.90;;
75169;SDS011;63749;49.186;9.222;2023-04-01T18:39:33;2.08;;;1.10;;
75169;SDS011;63749;49.186;9.222;2023-04-01T18:44:50;1.63;;;0.70;;
75169;SDS011;63749;49.186;9.222;2023-04-01T18:52:59;2.63;;;1.00;;
75169;SDS011;63749;49.186;9.222;2023-04-01T18:55:59;4.22;;;1.10;;
75169;SDS011;63749;49.186;9.222;2023-04-01T19:06:51;1.85;;;0.90;;
75169;SDS011;63749;49.186;9.222;2023-04-01T19:17:26;3.10;;;1.10;;
75169;SDS011;63749;49.186;9.222;2023-04-01T19:20:14;1.92;;;0.80;;
75169;SDS011;63749;49.186;9.222;2023-04-01T19:22:58;2.35;;;1.00;;
75169;SDS011;63749;49.186;9.222;2023-04-01T19:25:43;1.88;;;0.90;;
75169;SDS011;63749;49.186;9.222;2023-04-01T19:31:19;3.20;;;1.20;;
75169;SDS011;63749;49.186;9.222;2023-04-01T19:36:31;3.45;;;1.17;;
75169;SDS011;63749;49.186;9.222;2023-04-01T19:39:38;3.22;;;1.35;;
75169;SDS011;63749;49.186;9.222;2023-04-01T19:44:58;3.08;;;1.30;;
75169;SDS011;63749;49.186;9.222;2023-04-01T19:47:48;3.63;;;1.40;;
75169;SDS011;63749;49.186;9.222;2023-04-01T19:53:23;1.83;;;0.90;;
75169;SDS011;63749;49.186;9.222;2023-04-01T19:56:40;1.83;;;0.93;;
75169;SDS011;63749;49.186;9.222;2023-04-01T19:59:04;1.90;;;1.00;;
75169;SDS011;63749;49.186;9.222;2023-04-01T20:01:40;2.65;;;0.80;;
75169;SDS011;63749;49.186;9.222;2023-04-01T20:04:29;3.17;;;1.10;;
75169;SDS011;63749;49.186;9.222;2023-04-01T20:15:35;2.13;;;0.80;;
75169;SDS011;63749;49.186;9.222;2023-04-01T20:18:19;1.90;;;0.90;;
75169;SDS011;63749;49.186;9.222;2023-04-01T20:20:57;1.52;;;0.77;;
75169;SDS011;63749;49.186;9.222;2023-04-01T20:23:41;1.40;;;0.70;;
75169;SDS011;63749;49.186;9.222;2023-04-01T20:26:19;1.98;;;0.70;;
75169;SDS011;63749;49.186;9.222;2023-04-01T20:31:44;1.90;;;0.90;;
75169;SDS011;63749;49.186;9.222;2023-04-01T20:37:38;2.13;;;0.87;;
75169;SDS011;63749;49.186;9.222;2023-04-01T20:40:17;2.33;;;0.90;;
75169;SDS011;63749;49.186;9.222;2023-04-01T20:50:49;2.73;;;1.00;;
75169;SDS011;63749;49.186;9.222;2023-04-01T20:53:20;1.65;;;0.80;;
75169;SDS011;63749;49.186;9.222;2023-04-01T21:01:40;2.67;;;1.00;;
75169;SDS011;63749;49.186;9.222;2023-04-01T21:05:04;2.90;;;0.90;;
75169;SDS011;63749;49.186;9.222;2023-04-01T21:07:19;2.72;;;1.00;;
75169;SDS011;63749;49.186;9.222;2023-04-01T21:10:03;2.20;;;1.00;;
75169;SDS011;63749;49.186;9.222;2023-04-01T21:26:14;3.33;;;1.23;;
75169;SDS011;63749;49.186;9.222;2023-04-01T21:29:11;4.22;;;1.20;;
75169;SDS011;63749;49.186;9.222;2023-04-01T21:34:49;1.90;;;0.90;;
75169;SDS011;63749;49.186;9.222;2023-04-01T21:50:54;2.35;;;1.10;;
75169;SDS011;63749;49.186;9.222;2023-04-01T21:53:44;3.53;;;1.00;;
75169;SDS011;63749;49.186;9.222;2023-04-01T21:56:45;3.25;;;1.10;;
75169;SDS011;63749;49.186;9.222;2023-04-01T22:07:40;2.45;;;0.85;;
75169;SDS011;63749;49.186;9.222;2023-04-01T22:13:15;3.20;;;0.90;;
75169;SDS011;63749;49.186;9.222;2023-04-01T22:15:50;1.20;;;0.90;;
75169;SDS011;63749;49.186;9.222;2023-04-01T22:21:12;1.45;;;0.90;;
75169;SDS011;63749;49.186;9.222;2023-04-01T22:23:53;1.75;;;0.90;;
75169;SDS011;63749;49.186;9.222;2023-04-01T22:29:25;2.37;;;0.70;;
75169;SDS011;63749;49.186;9.222;2023-04-01T22:34:37;3.15;;;0.80;;
75169;SDS011;63749;49.186;9.222;2023-04-01T22:37:17;2.90;;;0.80;;
75169;SDS011;63749;49.186;9.222;2023-04-01T22:42:46;1.93;;;0.90;;
75169;SDS011;63749;49.186;9.222;2023-04-01T22:45:24;2.20;;;0.80;;
75169;SDS011;63749;49.186;9.222;2023-04-01T22:51:15;1.52;;;0.95;;
75169;SDS011;63749;49.186;9.222;2023-04-01T22:53:48;1.95;;;0.90;;
75169;SDS011;63749;49.186;9.222;2023-04-01T22:56:19;1.60;;;1.00;;
75169;SDS011;63749;49.186;9.222;2023-04-01T22:59:09;1.75;;;0.90;;
75169;SDS011;63749;49.186;9.222;2023-04-01T23:01:54;1.95;;;1.10;;
75169;SDS011;63749;49.186;9.222;2023-04-01T23:04:29;2.33;;;0.93;;
75169;SDS011;63749;49.186;9.222;2023-04-01T23:06:57;2.05;;;0.90;;
75169;SDS011;63749;49.186;9.222;2023-04-01T23:09:27;1.20;;;0.80;;
75169;SDS011;63749;49.186;9.222;2023-04-01T23:12:01;2.22;;;0.90;;
75169;SDS011;63749;49.186;9.222;2023-04-01T23:19:59;1.27;;;0.77;;
75169;SDS011;63749;49.186;9.222;2023-04-01T23:28:23;3.30;;;1.40;;
75169;SDS011;63749;49.186;9.222;2023-04-01T23:30:50;1.85;;;0.70;;
75169;SDS011;63749;49.186;9.222;2023-04-01T23:38:30;3.00;;;1.00;;
75169;SDS011;63749;49.186;9.222;2023-04-01T23:41:00;1.58;;;0.73;;
75169;SDS011;63749;49.186;9.222;2023-04-01T23:43:27;2.40;;;0.82;;
75169;SDS011;63749;49.186;9.222;2023-04-01T23:45:56;2.15;;;0.80;;
75169;SDS011;63749;49.186;9.222;2023-04-01T23:48:26;2.20;;;0.80;;
75169;SDS011;63749;49.186;9.222;2023-04-01T23:50:56;2.38;;;0.90;;
75169;SDS011;63749;49.186;9.222;2023-04-01T23:53:24;3.67;;;1.00;;
75169;SDS011;63749;49.186;9.222;2023-04-01T23:55:51;2.28;;;0.70;;
75169;SDS011;63749;49.186;9.222;2023-04-01T23:58:24;2.85;;;0.75;;
